Time;durP1;ratioP1;P1;durP2;ratioP2;P2;SDS_P1;SDS_P2;PMS_P1;PMS_P2;Temp;Humidity;BMP_temperature;BMP_pressure;BME280_temperature;BME280_humidity;BME280_pressure;Samples;Min_cycle;Max_cycle;Signal;HPM_P1;HPM_P2
2022/07/01 00:00:10;;;;;;;2.53;1.43;;;13.30;99.90;;;;;;4146679;28;20221;-78
2022/07/01 00:02:10;;;;;;;1.40;1.30;;;13.40;99.90;;;;;;4128199;28;20198;-78
2022/07/01 00:04:11;;;;;;;1.53;1.40;;;13.40;99.90;;;;;;4146708;28;20197;-77
2022/07/01 00:06:12;;;;;;;1.50;1.40;;;13.40;99.90;;;;;;4146242;28;20205;-78
2022/07/01 00:08:13;;;;;;;1.57;1.30;;;13.30;99.90;;;;;;4146216;28;20269;-77
2022/07/01 00:10:14;;;;;;;1.40;1.10;;;13.30;99.90;;;;;;4146387;28;20243;-78
2022/07/01 00:12:14;;;;;;;1.40;1.20;;;13.30;99.90;;;;;;4145473;28;20201;-78
2022/07/01 00:14:15;;;;;;;3.50;1.50;;;13.30;99.90;;;;;;4128961;28;20175;-77
2022/07/01 00:16:16;;;;;;;2.70;1.37;;;13.30;99.90;;;;;;4146359;28;20180;-77
2022/07/01 00:18:16;;;;;;;1.27;1.17;;;13.30;99.90;;;;;;4146295;28;20174;-78
2022/07/01 00:20:18;;;;;;;2.37;1.43;;;13.30;99.90;;;;;;4146775;28;20182;-78
2022/07/01 00:22:18;;;;;;;2.07;1.27;;;13.30;99.90;;;;;;4128676;28;20209;-78
2022/07/01 00:24:19;;;;;;;1.40;1.30;;;13.20;99.90;;;;;;4144666;28;20660;-78
2022/07/01 00:26:19;;;;;;;1.37;1.20;;;13.20;99.90;;;;;;4138506;28;20237;-76
2022/07/01 00:28:20;;;;;;;0.93;0.93;;;13.10;99.90;;;;;;4138260;28;20170;-77
2022/07/01 00:30:21;;;;;;;1.30;1.00;;;13.10;99.90;;;;;;4149241;28;20177;-77
2022/07/01 00:32:21;;;;;;;0.90;0.90;;;13.00;99.90;;;;;;4147253;28;20280;-76
2022/07/01 00:34:23;;;;;;;1.73;1.43;;;13.00;99.90;;;;;;4149250;28;20181;-77
2022/07/01 00:36:23;;;;;;;1.00;1.00;;;13.10;99.90;;;;;;4147808;28;20723;-78
2022/07/01 00:38:24;;;;;;;3.30;1.30;;;13.20;99.90;;;;;;4149143;28;20286;-77
2022/07/01 00:40:25;;;;;;;2.07;1.17;;;13.20;99.90;;;;;;4147825;28;20283;-77
2022/07/01 00:42:25;;;;;;;1.30;1.20;;;13.20;99.90;;;;;;4148601;28;20233;-77
2022/07/01 00:44:26;;;;;;;1.27;1.17;;;13.20;99.90;;;;;;4150787;28;20227;-77
2022/07/01 00:46:27;;;;;;;1.23;1.13;;;13.20;99.90;;;;;;4149939;28;20244;-77
2022/07/01 00:48:28;;;;;;;1.40;1.30;;;13.30;99.90;;;;;;4148945;28;20216;-77
2022/07/01 00:50:28;;;;;;;1.10;1.10;;;13.40;99.90;;;;;;4149118;28;20201;-77
2022/07/01 00:52:29;;;;;;;1.40;1.30;;;13.50;99.90;;;;;;4148161;28;20237;-77
2022/07/01 00:54:31;;;;;;;1.40;1.30;;;13.40;99.90;;;;;;4147632;28;20240;-77
2022/07/01 00:56:31;;;;;;;1.50;1.40;;;13.50;99.90;;;;;;4148993;28;20248;-77
2022/07/01 00:58:32;;;;;;;1.60;1.30;;;13.60;99.90;;;;;;4148870;28;20644;-77
2022/07/01 01:00:32;;;;;;;1.40;1.30;;;13.60;99.90;;;;;;4148675;28;20205;-77
2022/07/01 01:02:33;;;;;;;1.20;1.10;;;13.60;99.90;;;;;;4146637;28;20201;-77
2022/07/01 01:04:34;;;;;;;1.60;1.50;;;13.40;99.90;;;;;;4148455;28;20182;-78
2022/07/01 01:06:34;;;;;;;1.90;1.60;;;13.30;99.90;;;;;;4148922;28;20279;-77
2022/07/01 01:08:36;;;;;;;5.17;1.30;;;13.50;99.90;;;;;;4148458;28;20177;-77
2022/07/01 01:10:37;;;;;;;1.67;1.40;;;13.50;99.90;;;;;;4148616;28;20205;-77
2022/07/01 01:12:38;;;;;;;1.40;1.30;;;13.60;99.90;;;;;;4147861;28;20196;-77
2022/07/01 01:14:49;;;;;;;1.50;1.40;;;13.50;99.90;;;;;;4148366;28;20269;-76
2022/07/01 01:16:49;;;;;;;1.60;1.47;;;13.60;99.90;;;;;;4148609;28;20653;-77
2022/07/01 01:18:50;;;;;;;2.23;1.40;;;13.30;99.90;;;;;;4147166;28;20247;-77
2022/07/01 01:20:52;;;;;;;1.37;1.20;;;13.40;99.90;;;;;;4147720;28;20186;-77
2022/07/01 01:22:53;;;;;;;1.40;1.30;;;13.20;99.90;;;;;;4148063;28;20647;-77
2022/07/01 01:24:53;;;;;;;1.50;1.40;;;13.30;99.90;;;;;;4148299;28;20182;-77
2022/07/01 01:26:54;;;;;;;1.10;1.00;;;13.40;99.90;;;;;;4148103;28;20246;-77
2022/07/01 01:28:55;;;;;;;1.57;1.20;;;13.40;99.90;;;;;;4148282;28;20227;-77
2022/07/01 01:30:55;;;;;;;1.87;1.20;;;13.30;99.90;;;;;;4147771;28;20559;-76
2022/07/01 01:32:56;;;;;;;1.60;1.00;;;13.30;99.90;;;;;;4148244;28;20205;-77
2022/07/01 01:34:56;;;;;;;2.57;1.20;;;13.30;99.90;;;;;;4148119;28;20174;-76
2022/07/01 01:36:57;;;;;;;1.30;1.20;;;13.30;99.90;;;;;;4148051;28;20189;-77
2022/07/01 01:39:12;;;;;;;1.40;1.30;;;13.30;99.90;;;;;;4147802;28;20244;-76
2022/07/01 01:41:13;;;;;;;4.40;1.30;;;13.30;99.90;;;;;;4146332;28;20172;-76
2022/07/01 01:43:13;;;;;;;1.20;1.10;;;13.30;99.90;;;;;;4147956;28;20276;-77
2022/07/01 01:45:14;;;;;;;1.90;1.10;;;13.20;99.90;;;;;;4148062;28;20268;-77
2022/07/01 01:47:14;;;;;;;1.10;1.00;;;13.20;99.90;;;;;;4147905;28;20252;-76
2022/07/01 01:49:16;;;;;;;2.57;1.10;;;13.30;99.90;;;;;;4147941;28;20190;-77
2022/07/01 01:51:18;;;;;;;0.97;0.90;;;13.30;99.90;;;;;;4147189;28;20178;-77
2022/07/01 01:53:19;;;;;;;1.07;0.97;;;13.30;99.90;;;;;;4147911;28;20689;-76
2022/07/01 01:55:19;;;;;;;1.20;1.10;;;13.20;99.90;;;;;;4147709;28;20181;-76
2022/07/01 01:57:20;;;;;;;1.70;1.20;;;13.10;99.90;;;;;;4147828;28;20189;-76
2022/07/01 01:59:21;;;;;;;1.60;1.50;;;13.20;99.90;;;;;;4147570;28;20247;-76
2022/07/01 02:01:21;;;;;;;2.97;1.27;;;13.20;99.90;;;;;;4147081;28;20276;-76
2022/07/01 02:03:22;;;;;;;3.33;3.00;;;13.10;99.90;;;;;;4147626;28;20282;-76
2022/07/01 02:05:22;;;;;;;1.33;1.20;;;13.00;99.90;;;;;;4147889;28;20189;-76
2022/07/01 02:07:23;;;;;;;2.13;1.30;;;13.00;99.90;;;;;;4147766;28;20205;-76
2022/07/01 02:09:24;;;;;;;2.27;1.50;;;13.00;99.90;;;;;;4147795;28;20185;-75
2022/07/01 02:11:25;;;;;;;2.30;1.67;;;13.00;99.90;;;;;;4147454;28;20209;-76
2022/07/01 02:13:25;;;;;;;1.33;1.20;;;12.80;99.90;;;;;;4147606;28;20201;-76
2022/07/01 02:15:26;;;;;;;1.80;1.47;;;12.60;99.90;;;;;;4147685;28;20182;-76
2022/07/01 02:17:26;;;;;;;34.33;32.23;;;12.50;99.90;;;;;;4147618;28;20182;-76
2022/07/01 02:19:27;;;;;;;1.67;1.57;;;12.30;99.90;;;;;;4147238;28;20185;-76
2022/07/01 02:21:28;;;;;;;2.27;1.57;;;12.30;99.90;;;;;;4147114;28;20201;-76
2022/07/01 02:23:29;;;;;;;2.47;2.27;;;12.40;99.90;;;;;;4147318;28;20212;-76
2022/07/01 02:25:29;;;;;;;4.13;2.17;;;12.40;99.90;;;;;;4147148;28;20703;-75
2022/07/01 02:27:30;;;;;;;4.03;3.73;;;12.40;99.90;;;;;;4147165;28;20267;-75
2022/07/01 02:29:30;;;;;;;2.20;2.00;;;12.50;99.90;;;;;;4147294;28;20190;-76
2022/07/01 02:31:31;;;;;;;2.23;2.03;;;12.50;99.90;;;;;;4146783;28;20189;-75
2022/07/01 02:33:32;;;;;;;7.33;6.87;;;12.40;99.90;;;;;;4147172;28;20194;-76
2022/07/01 02:35:34;;;;;;;3.30;1.43;;;12.30;99.90;;;;;;4128466;28;20649;-76
2022/07/01 02:37:35;;;;;;;2.30;2.10;;;12.30;99.90;;;;;;4141429;28;20236;-76
2022/07/01 02:39:36;;;;;;;8.27;7.77;;;12.30;99.90;;;;;;4146902;28;20638;-75
2022/07/01 02:42:22;;;;;;;2.47;1.83;;;12.30;99.90;;;;;;4146446;28;20224;-75
2022/07/01 02:43:57;;;;;;;1.37;1.27;;;12.30;99.90;;;;;;4148115;28;20193;-76
2022/07/01 02:45:58;;;;;;;1.80;1.47;;;12.30;99.90;;;;;;4147922;28;20584;-75
2022/07/01 02:47:58;;;;;;;11.47;10.80;;;12.40;99.90;;;;;;4147243;28;20308;-75
2022/07/01 02:50:00;;;;;;;2.17;1.97;;;12.30;99.90;;;;;;4147004;28;20181;-75
2022/07/01 02:52:00;;;;;;;4.53;3.93;;;12.20;99.90;;;;;;4146022;28;20200;-75
2022/07/01 02:54:01;;;;;;;11.17;10.43;;;12.20;99.90;;;;;;4145406;28;20590;-74
2022/07/01 02:56:02;;;;;;;2.10;1.90;;;12.20;99.90;;;;;;4129441;28;20186;-75
2022/07/01 02:58:04;;;;;;;3.37;1.67;;;12.10;99.90;;;;;;4146790;28;20174;-75
2022/07/01 03:00:06;;;;;;;2.40;2.17;;;12.20;99.90;;;;;;4146360;28;20187;-75
2022/07/01 03:02:07;;;;;;;2.93;2.73;;;12.20;99.90;;;;;;4145708;28;20197;-75
2022/07/01 03:04:07;;;;;;;2.67;2.47;;;12.20;99.90;;;;;;4146589;28;20180;-75
2022/07/01 03:06:08;;;;;;;3.67;2.10;;;12.30;99.90;;;;;;4146307;28;20178;-76
2022/07/01 03:08:08;;;;;;;3.00;1.93;;;12.20;99.90;;;;;;4146145;28;20186;-76
2022/07/01 03:10:09;;;;;;;12.33;11.53;;;12.30;99.90;;;;;;4146230;28;20767;-75
2022/07/01 03:12:34;;;;;;;26.70;24.93;;;12.20;99.90;;;;;;4145965;28;20198;-76
2022/07/01 03:14:35;;;;;;;4.53;4.13;;;12.10;99.90;;;;;;4146653;28;20181;-75
2022/07/01 03:16:35;;;;;;;4.20;3.33;;;12.00;99.90;;;;;;4146405;28;20201;-76
2022/07/01 03:18:36;;;;;;;20.43;19.07;;;12.00;99.90;;;;;;4146607;28;20244;-76
2022/07/01 03:20:36;;;;;;;7.17;6.67;;;12.00;99.90;;;;;;4146548;28;20190;-76
2022/07/01 03:22:38;;;;;;;3.50;3.10;;;12.00;99.90;;;;;;4145461;28;20205;-77
2022/07/01 03:24:38;;;;;;;2.57;2.37;;;12.10;99.90;;;;;;4146186;28;20207;-76
2022/07/01 03:26:39;;;;;;;4.50;4.10;;;12.20;99.90;;;;;;4146209;28;20205;-75
2022/07/01 03:28:39;;;;;;;2.40;2.20;;;12.20;99.90;;;;;;4146142;28;20192;-75
2022/07/01 03:30:40;;;;;;;5.00;4.60;;;12.20;99.90;;;;;;4145852;28;20192;-76
2022/07/01 03:32:40;;;;;;;6.13;5.73;;;12.10;99.90;;;;;;4145925;28;20197;-75
2022/07/01 03:34:43;;;;;;;1.73;1.60;;;11.90;99.90;;;;;;4146202;28;20986;-75
2022/07/01 03:36:43;;;;;;;1.30;1.20;;;12.10;99.90;;;;;;4145852;28;20184;-75
2022/07/01 03:38:44;;;;;;;1.10;1.00;;;12.20;99.90;;;;;;4145967;28;20272;-76
2022/07/01 03:40:44;;;;;;;1.00;1.00;;;12.10;99.90;;;;;;4145230;28;20216;-75
2022/07/01 03:42:45;;;;;;;1.20;1.10;;;12.10;99.90;;;;;;4146149;28;20224;-76
2022/07/01 03:44:46;;;;;;;1.13;0.90;;;12.10;99.90;;;;;;4146378;28;20177;-75
2022/07/01 03:46:46;;;;;;;6.43;5.90;;;12.10;99.90;;;;;;4128787;28;20206;-75
2022/07/01 03:48:47;;;;;;;2.87;2.77;;;12.10;99.90;;;;;;4146167;28;20244;-75
2022/07/01 03:50:47;;;;;;;1.13;1.13;;;12.20;99.90;;;;;;4145782;28;20178;-76
2022/07/01 03:52:48;;;;;;;0.73;0.73;;;12.10;99.90;;;;;;4145653;28;20236;-75
2022/07/01 03:54:49;;;;;;;0.80;0.80;;;12.10;99.90;;;;;;4146379;28;20184;-76
2022/07/01 03:56:49;;;;;;;1.37;1.33;;;12.10;99.90;;;;;;4145949;28;20190;-76
2022/07/01 03:58:50;;;;;;;2.17;2.07;;;12.10;99.90;;;;;;4145713;28;20837;-76
2022/07/01 04:00:50;;;;;;;2.70;0.70;;;12.10;99.90;;;;;;4127510;28;20190;-76
2022/07/01 04:02:51;;;;;;;0.60;0.60;;;12.10;99.90;;;;;;4145523;28;20304;-76
2022/07/01 04:04:51;;;;;;;1.23;1.23;;;12.10;99.90;;;;;;4147805;28;20644;-75
2022/07/01 04:06:57;;;;;;;4.97;4.77;;;12.00;99.90;;;;;;4148474;28;20240;-75
2022/07/01 04:08:58;;;;;;;39.30;36.87;;;12.00;99.90;;;;;;4148696;28;20186;-76
2022/07/01 04:10:59;;;;;;;6.40;6.03;;;12.10;99.90;;;;;;4148055;28;20600;-76
2022/07/01 04:13:01;;;;;;;1.43;0.60;;;11.90;99.90;;;;;;4149308;28;20205;-75
2022/07/01 04:15:02;;;;;;;1.37;0.80;;;11.90;99.90;;;;;;4151749;28;20183;-76
2022/07/01 04:17:03;;;;;;;0.70;0.60;;;11.90;99.90;;;;;;4151469;28;20204;-76
2022/07/01 04:19:04;;;;;;;1.30;0.77;;;12.00;99.90;;;;;;4151573;28;20182;-75
2022/07/01 04:23:24;;;;;;;3.27;3.07;;;12.10;99.90;;;;;;4152506;28;20730;-75
2022/07/01 04:25:25;;;;;;;2.77;0.80;;;11.90;99.90;;;;;;4152099;28;20257;-76
2022/07/01 04:27:25;;;;;;;2.50;2.20;;;11.80;99.90;;;;;;4151974;28;20236;-75
2022/07/01 04:29:27;;;;;;;1.30;1.00;;;11.80;99.90;;;;;;4151975;28;20257;-75
2022/07/01 04:31:27;;;;;;;4.60;4.40;;;11.90;99.90;;;;;;4151439;28;20181;-75
2022/07/01 04:33:28;;;;;;;4.93;4.53;;;11.80;99.90;;;;;;4151801;28;20186;-75
2022/07/01 04:35:28;;;;;;;0.93;0.80;;;11.80;99.90;;;;;;4152063;28;20264;-76
2022/07/01 04:37:29;;;;;;;1.60;0.90;;;11.80;99.90;;;;;;4152042;28;20185;-75
2022/07/01 04:39:30;;;;;;;0.70;0.57;;;11.70;99.90;;;;;;4151987;28;20192;-75
2022/07/01 04:43:50;;;;;;;1.27;0.60;;;11.70;99.90;;;;;;4152350;28;20173;-76
2022/07/01 04:45:50;;;;;;;0.57;0.57;;;11.60;99.90;;;;;;4151727;28;20269;-76
2022/07/01 04:47:51;;;;;;;0.50;0.50;;;11.60;99.90;;;;;;4151761;28;20221;-75
2022/07/01 04:49:51;;;;;;;8.37;7.87;;;11.70;99.90;;;;;;4152307;28;20184;-76
2022/07/01 04:51:52;;;;;;;0.90;0.90;;;11.60;99.90;;;;;;4150300;28;20612;-75
2022/07/01 04:53:53;;;;;;;0.60;0.60;;;11.60;99.90;;;;;;4152223;28;20188;-75
2022/07/01 04:55:53;;;;;;;1.10;0.50;;;11.50;99.90;;;;;;4152927;28;20237;-75
2022/07/01 04:57:54;;;;;;;0.40;0.40;;;11.60;99.90;;;;;;4151948;28;20746;-75
2022/07/01 04:59:54;;;;;;;0.50;0.50;;;11.70;99.90;;;;;;4151688;28;20181;-74
2022/07/01 05:01:55;;;;;;;0.70;0.50;;;11.70;99.90;;;;;;4151495;28;20192;-75
2022/07/01 05:03:56;;;;;;;3.13;2.93;;;11.80;99.90;;;;;;4134091;28;20226;-77
2022/07/01 05:05:56;;;;;;;0.87;0.50;;;11.80;99.90;;;;;;4151678;28;20188;-76
2022/07/01 05:07:57;;;;;;;1.20;0.40;;;11.80;99.90;;;;;;4151805;28;20237;-75
2022/07/01 05:10:01;;;;;;;0.40;0.40;;;11.90;99.90;;;;;;4149019;28;20182;-76
2022/07/01 05:12:01;;;;;;;0.50;0.50;;;11.90;99.90;;;;;;4147595;28;20595;-75
2022/07/01 05:14:02;;;;;;;2.77;0.60;;;12.00;99.90;;;;;;4148159;28;20189;-74
2022/07/01 05:16:04;;;;;;;0.50;0.50;;;12.00;99.90;;;;;;4147673;28;20189;-74
2022/07/01 05:22:43;;;;;;;0.60;0.60;;;12.00;99.90;;;;;;4148222;28;20723;-75
2022/07/01 05:24:43;;;;;;;0.50;0.50;;;12.10;99.90;;;;;;4147603;28;20189;-75
2022/07/01 05:26:44;;;;;;;0.50;0.50;;;12.00;99.90;;;;;;4147750;28;20300;-75
2022/07/01 05:28:45;;;;;;;2.13;2.03;;;12.00;99.90;;;;;;4147680;28;20252;-76
2022/07/01 05:30:46;;;;;;;0.60;0.60;;;11.90;99.90;;;;;;4146794;28;20189;-75
2022/07/01 05:32:46;;;;;;;0.80;0.47;;;11.80;99.90;;;;;;4147477;28;20252;-76
2022/07/01 05:34:47;;;;;;;0.87;0.87;;;11.90;99.90;;;;;;4147519;28;20600;-76
2022/07/01 05:36:47;;;;;;;0.53;0.50;;;11.80;99.90;;;;;;4147277;28;20208;-75
2022/07/01 05:38:48;;;;;;;0.80;0.80;;;11.80;99.90;;;;;;4147457;28;20186;-74
2022/07/01 05:40:49;;;;;;;0.60;0.60;;;11.80;99.90;;;;;;4146980;28;20645;-75
2022/07/01 05:42:49;;;;;;;2.33;0.70;;;11.80;99.90;;;;;;4147410;28;20257;-75
2022/07/01 05:44:50;;;;;;;1.13;1.07;;;11.80;99.90;;;;;;4147576;28;20261;-75
2022/07/01 05:46:50;;;;;;;1.03;0.90;;;11.90;99.90;;;;;;4146860;28;20206;-75
2022/07/01 05:48:51;;;;;;;1.80;1.70;;;12.00;99.90;;;;;;4147373;28;20618;-75
2022/07/01 05:50:51;;;;;;;3.23;0.60;;;11.80;99.90;;;;;;4146689;28;20178;-74
2022/07/01 05:52:52;;;;;;;5.07;4.30;;;11.80;99.90;;;;;;4147061;28;20297;-75
2022/07/01 05:54:52;;;;;;;2.57;2.47;;;11.70;99.90;;;;;;4147137;28;20182;-75
2022/07/01 05:56:53;;;;;;;0.77;0.67;;;11.70;99.90;;;;;;4147265;28;20209;-75
2022/07/01 05:58:54;;;;;;;23.23;21.93;;;11.80;99.90;;;;;;4147035;28;20209;-75
2022/07/01 06:00:54;;;;;;;0.90;0.90;;;11.60;99.90;;;;;;4143532;28;20190;-76
2022/07/01 06:02:55;;;;;;;2.23;2.13;;;11.70;99.90;;;;;;4138603;28;20229;-75
2022/07/01 06:04:56;;;;;;;14.20;13.40;;;11.70;99.90;;;;;;4138540;28;20185;-75
2022/07/01 06:06:56;;;;;;;0.60;0.60;;;11.70;99.90;;;;;;4138717;28;20195;-75
2022/07/01 06:08:57;;;;;;;1.63;1.53;;;11.50;99.90;;;;;;4138769;28;20202;-75
2022/07/01 06:10:57;;;;;;;0.93;0.87;;;11.60;99.90;;;;;;4140299;28;20170;-75
2022/07/01 06:12:58;;;;;;;1.67;0.60;;;11.60;99.90;;;;;;4147028;28;20221;-75
2022/07/01 06:14:58;;;;;;;0.67;0.67;;;11.70;99.90;;;;;;4145319;28;20186;-75
2022/07/01 06:16:59;;;;;;;5.90;0.80;;;11.80;99.90;;;;;;4118443;28;20190;-75
2022/07/01 06:18:59;;;;;;;0.90;0.90;;;11.90;99.90;;;;;;4138340;28;20572;-75
2022/07/01 06:21:00;;;;;;;0.60;0.60;;;11.90;99.90;;;;;;4137697;28;20614;-75
2022/07/01 06:23:01;;;;;;;0.73;0.70;;;11.90;99.90;;;;;;4139766;28;20578;-75
2022/07/01 06:25:02;;;;;;;1.50;0.60;;;11.90;99.90;;;;;;4139920;28;20191;-75
2022/07/01 06:27:04;;;;;;;0.53;0.53;;;12.00;99.90;;;;;;4138016;28;20660;-75
2022/07/01 06:29:04;;;;;;;1.13;0.57;;;12.00;99.90;;;;;;4138684;28;20551;-75
2022/07/01 06:31:05;;;;;;;0.60;0.60;;;12.00;99.90;;;;;;4137928;28;20264;-75
2022/07/01 06:33:05;;;;;;;0.60;0.50;;;12.20;99.90;;;;;;4138566;28;20190;-74
2022/07/01 06:35:07;;;;;;;0.50;0.50;;;12.20;99.90;;;;;;4138483;28;20218;-75
2022/07/01 06:37:08;;;;;;;0.93;0.60;;;12.20;99.90;;;;;;4138373;28;20590;-75
2022/07/01 06:39:08;;;;;;;0.90;0.60;;;12.30;99.90;;;;;;4138251;28;20221;-75
2022/07/01 06:41:27;;;;;;;0.80;0.80;;;12.40;99.90;;;;;;4132240;28;20252;-74
2022/07/01 06:43:27;;;;;;;0.97;0.53;;;12.40;99.90;;;;;;4142878;28;20680;-74
2022/07/01 06:45:28;;;;;;;0.70;0.70;;;12.30;99.90;;;;;;4145522;28;20189;-74
2022/07/01 06:47:29;;;;;;;1.57;1.47;;;12.10;99.90;;;;;;4146846;28;20243;-74
2022/07/01 06:49:30;;;;;;;0.70;0.70;;;12.00;99.90;;;;;;4146680;28;20181;-74
2022/07/01 06:51:30;;;;;;;0.87;0.80;;;11.90;99.90;;;;;;4151108;28;20715;-74
2022/07/01 06:53:31;;;;;;;7.03;6.63;;;11.90;99.90;;;;;;4146816;28;20684;-75
2022/07/01 06:55:31;;;;;;;0.53;0.50;;;12.00;99.90;;;;;;4146840;28;20184;-75
2022/07/01 06:57:32;;;;;;;0.60;0.60;;;12.00;99.90;;;;;;4135601;28;20322;-75
2022/07/01 06:59:33;;;;;;;0.43;0.43;;;12.00;99.90;;;;;;4144339;28;20235;-75
2022/07/01 07:01:34;;;;;;;0.60;0.60;;;12.10;99.90;;;;;;4136538;28;20183;-74
2022/07/01 07:03:35;;;;;;;0.60;0.60;;;12.10;99.90;;;;;;4147143;28;20575;-75
2022/07/01 07:05:35;;;;;;;0.60;0.60;;;12.10;99.90;;;;;;4147379;28;20208;-75
2022/07/01 07:07:36;;;;;;;0.53;0.53;;;12.30;99.90;;;;;;4147710;28;20201;-74
2022/07/01 07:09:36;;;;;;;0.60;0.60;;;12.20;99.90;;;;;;4147954;28;20174;-74
2022/07/01 07:11:37;;;;;;;0.60;0.60;;;12.30;99.90;;;;;;4147529;28;20170;-74
2022/07/01 07:13:38;;;;;;;0.70;0.70;;;12.20;99.90;;;;;;4146366;28;20645;-74
2022/07/01 07:15:41;;;;;;;0.70;0.70;;;12.20;99.90;;;;;;4147078;28;20231;-75
2022/07/01 07:17:42;;;;;;;1.23;1.13;;;12.30;99.90;;;;;;4146747;28;20189;-77
2022/07/01 07:19:42;;;;;;;1.27;0.77;;;12.10;99.90;;;;;;4146450;28;20189;-76
2022/07/01 07:21:43;;;;;;;1.73;0.90;;;12.00;99.90;;;;;;4145803;28;20205;-75
2022/07/01 07:23:44;;;;;;;2.20;0.80;;;11.90;99.90;;;;;;4146482;28;20189;-70
2022/07/01 07:25:44;;;;;;;1.03;0.80;;;11.90;99.90;;;;;;4146095;28;20189;-76
2022/07/01 07:27:46;;;;;;;2.17;1.70;;;11.90;99.90;;;;;;4145890;28;20284;-76
2022/07/01 07:29:46;;;;;;;0.80;0.80;;;11.90;99.90;;;;;;4146029;28;20203;-76
2022/07/01 07:31:47;;;;;;;1.43;1.10;;;11.90;99.90;;;;;;4145396;28;20550;-76
2022/07/01 07:33:47;;;;;;;0.90;0.87;;;11.90;99.90;;;;;;4145892;28;20649;-76
2022/07/01 07:35:48;;;;;;;0.90;0.90;;;11.80;99.90;;;;;;4145923;28;20177;-76
2022/07/01 07:37:49;;;;;;;1.20;0.90;;;11.90;99.90;;;;;;4146771;28;20227;-76
2022/07/01 07:39:49;;;;;;;0.83;0.83;;;11.90;99.90;;;;;;4149527;28;20260;-76
2022/07/01 07:41:50;;;;;;;0.70;0.70;;;11.90;99.90;;;;;;4149125;28;20264;-76
2022/07/01 07:43:50;;;;;;;3.23;0.80;;;11.90;99.90;;;;;;4149557;28;20557;-76
2022/07/01 07:45:51;;;;;;;1.00;0.73;;;11.90;99.90;;;;;;4149510;28;20773;-76
2022/07/01 07:47:54;;;;;;;2.13;0.90;;;11.90;99.90;;;;;;4147851;28;20205;-76
2022/07/01 07:49:55;;;;;;;0.90;0.80;;;11.80;99.90;;;;;;4149425;28;20239;-76
2022/07/01 07:51:55;;;;;;;0.93;0.90;;;11.60;99.90;;;;;;4148335;28;20181;-76
2022/07/01 07:53:56;;;;;;;0.60;0.60;;;11.60;99.90;;;;;;4135634;28;20187;-75
2022/07/01 07:55:56;;;;;;;4.10;2.77;;;11.70;99.90;;;;;;4150046;28;20531;-75
2022/07/01 07:57:57;;;;;;;1.60;1.30;;;11.70;99.90;;;;;;4149144;28;20178;-77
2022/07/01 07:59:58;;;;;;;1.63;0.90;;;11.80;99.90;;;;;;4133757;28;20645;-74
2022/07/01 08:01:58;;;;;;;0.70;0.60;;;11.90;99.90;;;;;;4150035;28;20201;-74
2022/07/01 08:03:59;;;;;;;1.47;0.87;;;11.90;99.90;;;;;;4150997;28;20200;-73
2022/07/01 08:05:59;;;;;;;1.00;0.80;;;11.80;99.90;;;;;;4150804;28;20186;-73
2022/07/01 08:08:00;;;;;;;0.80;0.80;;;11.80;99.90;;;;;;4150827;28;20213;-73
2022/07/01 08:10:01;;;;;;;1.13;0.90;;;11.70;99.90;;;;;;4151423;28;20202;-73
2022/07/01 08:12:02;;;;;;;2.13;0.80;;;11.80;99.90;;;;;;4149789;28;20193;-72
2022/07/01 08:14:03;;;;;;;1.40;0.93;;;11.80;99.90;;;;;;4150804;28;20220;-73
2022/07/01 08:16:04;;;;;;;1.10;1.00;;;11.70;99.90;;;;;;4133976;28;20786;-73
2022/07/01 08:18:04;;;;;;;0.90;0.90;;;11.60;99.90;;;;;;4151348;28;20216;-73
2022/07/01 08:20:06;;;;;;;3.93;3.73;;;11.70;99.90;;;;;;4151725;28;20189;-73
2022/07/01 08:22:06;;;;;;;1.70;0.90;;;11.60;99.90;;;;;;4149850;28;20721;-72
2022/07/01 08:24:07;;;;;;;1.50;0.97;;;11.60;99.90;;;;;;4150582;28;20178;-73
2022/07/01 08:26:08;;;;;;;1.00;1.00;;;11.70;99.90;;;;;;4150882;28;20178;-73
2022/07/01 08:28:08;;;;;;;0.70;0.70;;;11.60;99.90;;;;;;4150289;28;20198;-73
2022/07/01 08:30:09;;;;;;;1.60;0.63;;;11.60;99.90;;;;;;4150416;28;20233;-73
2022/07/01 08:32:10;;;;;;;0.70;0.70;;;11.70;99.90;;;;;;4150049;28;20692;-73
2022/07/01 08:34:10;;;;;;;0.70;0.70;;;11.90;99.90;;;;;;4150578;28;20636;-73
2022/07/01 08:36:13;;;;;;;1.10;0.70;;;12.00;99.90;;;;;;4150311;28;20232;-73
2022/07/01 08:38:14;;;;;;;1.27;1.17;;;12.10;99.90;;;;;;4150016;28;20539;-73
2022/07/01 08:40:14;;;;;;;0.70;0.70;;;12.20;99.90;;;;;;4150395;28;20272;-74
2022/07/01 08:42:15;;;;;;;0.73;0.73;;;12.10;99.90;;;;;;4150047;28;20193;-74
2022/07/01 08:44:16;;;;;;;0.70;0.70;;;12.10;99.90;;;;;;4149739;28;20691;-74
2022/07/01 08:46:16;;;;;;;1.73;0.80;;;12.10;99.90;;;;;;4149267;28;20186;-74
2022/07/01 08:48:17;;;;;;;0.70;0.70;;;12.10;99.90;;;;;;4149316;28;20672;-74
2022/07/01 08:50:18;;;;;;;0.70;0.70;;;12.10;99.90;;;;;;4148666;28;20660;-72
2022/07/01 08:52:19;;;;;;;1.50;0.70;;;12.40;99.90;;;;;;4148734;28;20233;-72
2022/07/01 08:54:19;;;;;;;0.80;0.80;;;12.60;99.90;;;;;;4149681;28;20174;-72
2022/07/01 08:58:39;;;;;;;1.30;0.70;;;13.00;99.90;;;;;;4149546;28;20693;-72
2022/07/01 09:00:40;;;;;;;1.63;1.57;;;13.10;99.90;;;;;;4149346;28;20190;-72
2022/07/01 09:02:54;;;;;;;1.40;0.80;;;13.40;99.90;;;;;;4149544;28;20263;-72
2022/07/01 09:05:05;;;;;;;0.70;0.70;;;13.70;99.90;;;;;;4149739;28;20178;-72
2022/07/01 09:07:09;;;;;;;0.70;0.70;;;13.70;99.70;;;;;;4149628;28;20580;-72
2022/07/01 09:09:14;;;;;;;1.00;0.70;;;13.90;98.10;;;;;;4149316;28;20817;-72
2022/07/01 09:11:25;;;;;;;0.80;0.80;;;13.50;99.60;;;;;;4148811;28;20158;-72
2022/07/01 09:13:26;;;;;;;0.70;0.70;;;13.70;99.90;;;;;;4149746;28;20193;-72
2022/07/01 09:15:29;;;;;;;1.17;0.97;;;13.80;97.90;;;;;;4131585;28;20269;-72
2022/07/01 09:17:30;;;;;;;0.70;0.70;;;13.70;98.70;;;;;;4149188;28;20720;-72
2022/07/01 09:19:36;;;;;;;1.27;0.80;;;13.80;99.50;;;;;;4148858;28;20189;-72
2022/07/01 09:21:37;;;;;;;1.13;0.77;;;13.80;99.90;;;;;;4148743;28;20205;-72
2022/07/01 09:23:38;;;;;;;1.20;1.10;;;13.60;98.40;;;;;;4148931;28;20213;-72
2022/07/01 09:25:47;;;;;;;0.90;0.80;;;13.70;98.60;;;;;;4148572;28;20181;-72
2022/07/01 09:28:06;;;;;;;2.20;2.10;;;13.90;98.60;;;;;;4148486;28;20197;-72
2022/07/01 09:30:09;;;;;;;0.80;0.80;;;14.00;96.80;;;;;;4148534;28;20188;-72
2022/07/01 09:32:11;;;;;;;0.77;0.63;;;13.90;98.30;;;;;;4147876;28;20198;-72
2022/07/01 09:34:12;;;;;;;1.37;1.37;;;14.30;97.70;;;;;;4148675;28;20641;-72
2022/07/01 09:36:16;;;;;;;1.47;0.83;;;14.30;97.10;;;;;;4148447;28;20174;-72
2022/07/01 09:38:18;;;;;;;1.30;0.70;;;14.20;96.90;;;;;;4148936;28;20204;-72
2022/07/01 09:40:19;;;;;;;1.73;1.30;;;14.30;98.10;;;;;;4148682;28;20186;-72
2022/07/01 09:42:22;;;;;;;1.60;0.70;;;14.20;97.90;;;;;;4147589;28;20299;-72
2022/07/01 09:44:23;;;;;;;0.90;0.70;;;14.20;97.40;;;;;;4148318;28;20189;-72
2022/07/01 09:46:25;;;;;;;1.63;0.60;;;14.40;98.60;;;;;;4148067;28;20703;-72
2022/07/01 09:48:34;;;;;;;0.90;0.77;;;14.80;98.70;;;;;;4130869;28;20181;-72
2022/07/01 09:50:36;;;;;;;1.00;0.60;;;15.60;94.70;;;;;;4148507;28;20640;-72
2022/07/01 09:52:38;;;;;;;1.23;1.00;;;15.50;95.20;;;;;;4147586;28;20201;-72
2022/07/01 09:54:39;;;;;;;2.53;2.37;;;15.30;94.90;;;;;;4148288;28;20572;-72
2022/07/01 09:56:40;;;;;;;0.60;0.60;;;15.10;94.50;;;;;;4148273;28;20184;-72
2022/07/01 09:58:42;;;;;;;0.60;0.60;;;15.00;93.30;;;;;;4147762;28;20197;-72
2022/07/01 10:00:43;;;;;;;0.50;0.50;;;14.80;94.90;;;;;;4146966;28;20919;-72
2022/07/01 10:02:45;;;;;;;1.13;0.60;;;14.90;95.30;;;;;;4147633;28;20208;-72
2022/07/01 10:05:08;;;;;;;0.80;0.60;;;14.80;94.40;;;;;;4148285;28;20737;-72
2022/07/01 10:07:28;;;;;;;0.50;0.50;;;14.60;94.50;;;;;;4147038;28;20221;-73
2022/07/01 10:09:32;;;;;;;0.50;0.50;;;14.40;97.40;;;;;;4148048;28;20277;-73
2022/07/01 10:11:47;;;;;;;0.50;0.50;;;14.60;97.60;;;;;;4147169;28;20178;-73
2022/07/01 10:13:49;;;;;;;0.60;0.60;;;14.80;97.10;;;;;;4147814;28;20162;-73
2022/07/01 10:15:50;;;;;;;1.43;1.37;;;14.60;97.70;;;;;;4148004;28;20565;-73
2022/07/01 10:17:52;;;;;;;0.50;0.50;;;14.60;96.90;;;;;;4147903;28;20174;-73
2022/07/01 10:20:05;;;;;;;0.87;0.63;;;15.00;96.40;;;;;;4147974;28;20256;-73
2022/07/01 10:22:28;;;;;;;0.70;0.50;;;15.10;95.10;;;;;;4227159;27;20549;-72
2022/07/01 10:24:29;;;;;;;0.80;0.80;;;15.20;92.00;;;;;;4228057;28;20188;-72
2022/07/01 10:26:29;;;;;;;2.20;2.10;;;15.40;94.20;;;;;;4227615;28;20182;-73
2022/07/01 10:28:43;;;;;;;0.80;0.80;;;15.80;93.60;;;;;;4227428;28;20197;-72
2022/07/01 10:31:09;;;;;;;2.70;2.60;;;16.20;89.50;;;;;;4226904;28;20529;-72
2022/07/01 10:33:10;;;;;;;2.17;2.07;;;16.00;90.70;;;;;;4227112;28;20213;-72
2022/07/01 10:35:11;;;;;;;0.93;0.90;;;16.00;89.30;;;;;;4227440;28;20557;-71
2022/07/01 10:37:12;;;;;;;1.33;1.27;;;15.70;87.20;;;;;;4227406;28;20247;-73
2022/07/01 10:39:14;;;;;;;1.30;1.10;;;15.80;86.80;;;;;;4227859;28;20179;-73
2022/07/01 10:41:25;;;;;;;1.77;1.70;;;16.10;81.80;;;;;;4226771;28;20259;-74
2022/07/01 10:43:34;;;;;;;0.93;0.70;;;16.70;81.80;;;;;;4227078;28;20213;-71